Time;durP1;ratioP1;P1;durP2;ratioP2;P2;SDS_P1;SDS_P2;PMS_P1;PMS_P2;Temp;Humidity;BMP_temperature;BMP_pressure;BME280_temperature;BME280_humidity;BME280_pressure;Samples;Min_cycle;Max_cycle;Signal;HPM_P1;HPM_P2
2022/11/13 00:01:19;;;;;;;5.80;3.40;;;8.00;99.90;;;8.25;nan;101810.09;5053007;28;20615;-62
2022/11/13 00:03:47;;;;;;;13.27;6.47;;;8.00;99.90;;;8.23;nan;101808.44;5033434;28;20679;-64
2022/11/13 00:06:23;;;;;;;13.00;6.47;;;7.90;99.90;;;8.20;nan;101798.19;5054328;28;21251;-64
2022/11/13 00:08:54;;;;;;;12.30;6.03;;;8.00;99.90;;;8.20;nan;101808.59;5062741;28;20634;-64
2022/11/13 00:11:21;;;;;;;8.27;5.47;;;7.90;99.90;;;8.12;nan;101813.25;5051086;28;20617;-65
2022/11/13 00:13:48;;;;;;;11.60;5.43;;;7.90;99.90;;;8.11;nan;101802.03;5052885;28;20680;-65
2022/11/13 00:16:18;;;;;;;8.00;4.83;;;7.90;99.90;;;8.21;nan;101802.47;5049867;28;20698;-67
2022/11/13 00:18:47;;;;;;;11.43;6.00;;;7.90;99.90;;;8.25;nan;101796.22;5052308;28;20697;-65
2022/11/13 00:21:23;;;;;;;9.00;5.67;;;7.90;99.90;;;8.25;nan;101791.00;5050099;28;21468;-65
2022/11/13 00:23:50;;;;;;;6.07;3.87;;;7.90;99.90;;;8.15;nan;101785.38;5048320;28;21187;-65
2022/11/13 00:26:23;;;;;;;6.47;4.10;;;7.90;99.90;;;8.24;nan;101789.34;5047446;28;20632;-65
2022/11/13 00:29:00;;;;;;;11.13;5.90;;;7.90;99.90;;;8.17;nan;101782.72;5049304;28;20687;-64
2022/11/13 00:31:28;;;;;;;7.00;4.57;;;7.90;99.90;;;8.17;nan;101793.97;5051749;28;20631;-65
2022/11/13 00:33:58;;;;;;;8.67;4.27;;;7.90;99.90;;;8.19;nan;101786.09;5049565;28;20662;-65
2022/11/13 00:36:45;;;;;;;9.03;4.10;;;7.90;99.90;;;8.13;nan;101783.75;5051676;28;20640;-65
2022/11/13 00:39:12;;;;;;;11.70;6.50;;;7.90;99.90;;;8.05;nan;101776.28;5050614;28;21195;-64
2022/11/13 00:41:39;;;;;;;7.37;4.40;;;7.90;99.90;;;8.10;nan;101776.06;5050417;28;20642;-65
2022/11/13 00:44:06;;;;;;;6.20;4.17;;;7.80;99.90;;;8.17;nan;101778.38;5050472;28;20671;-65
2022/11/13 00:46:33;;;;;;;5.80;4.33;;;7.80;99.90;;;8.22;nan;101780.75;5070056;28;20631;-65
2022/11/13 00:49:00;;;;;;;10.63;5.77;;;7.90;99.90;;;8.24;nan;101778.94;5049864;28;21213;-66
2022/11/13 00:51:27;;;;;;;8.93;5.57;;;7.90;99.90;;;8.14;nan;101773.28;5050287;28;20976;-64
2022/11/13 00:53:54;;;;;;;16.20;7.37;;;7.90;99.90;;;8.13;nan;101775.97;5034726;28;20674;-64
2022/11/13 00:56:20;;;;;;;6.70;4.47;;;7.90;99.90;;;8.09;nan;101790.00;5069940;28;20622;-65
2022/11/13 00:58:47;;;;;;;12.47;6.07;;;7.80;99.90;;;8.11;nan;101780.38;5063944;28;21207;-65
2022/11/13 01:01:18;;;;;;;4.60;3.40;;;7.90;99.90;;;8.21;nan;101784.25;5050225;28;20637;-64
2022/11/13 01:03:45;;;;;;;4.27;3.10;;;7.90;99.90;;;8.23;nan;101782.44;5049177;28;20671;-65
2022/11/13 01:06:20;;;;;;;3.23;2.93;;;7.90;99.90;;;8.25;nan;101783.22;5049361;28;21214;-66
2022/11/13 01:08:47;;;;;;;6.63;3.30;;;7.90;99.90;;;8.25;nan;101785.81;5016267;28;21155;-65
2022/11/13 01:11:21;;;;;;;4.47;3.50;;;7.90;99.90;;;8.23;nan;101787.63;5049047;28;20623;-64
2022/11/13 01:13:49;;;;;;;2.70;2.40;;;7.90;99.90;;;8.09;nan;101787.41;5050082;28;20669;-64
2022/11/13 01:16:20;;;;;;;2.97;2.10;;;7.90;99.90;;;8.03;nan;101790.28;5049659;28;20638;-66
2022/11/13 01:18:47;;;;;;;5.80;3.50;;;7.90;99.90;;;8.11;nan;101782.97;5049187;28;20691;-64
2022/11/13 01:21:22;;;;;;;4.37;3.10;;;7.80;99.90;;;8.16;nan;101781.00;5049880;28;20642;-65
2022/11/13 01:23:49;;;;;;;8.37;5.63;;;7.80;99.90;;;8.15;nan;101776.75;5047927;28;21092;-65
2022/11/13 01:26:24;;;;;;;12.67;6.30;;;7.80;99.90;;;8.21;nan;101774.72;5048627;28;20663;-64
2022/11/13 01:28:51;;;;;;;10.73;5.23;;;7.90;99.90;;;8.11;nan;101768.25;5052413;28;21056;-65
2022/11/13 01:31:26;;;;;;;11.37;6.00;;;7.80;99.90;;;7.94;nan;101770.72;5061569;28;20691;-65
2022/11/13 01:33:54;;;;;;;10.83;5.63;;;7.70;99.90;;;7.95;nan;101764.59;5057599;28;20701;-65
2022/11/13 01:36:26;;;;;;;11.00;6.20;;;7.70;99.90;;;7.91;nan;101765.66;5049527;28;20675;-66
2022/11/13 01:38:55;;;;;;;8.17;5.63;;;7.60;99.90;;;7.77;nan;101771.41;5045700;28;20644;-65
2022/11/13 01:41:33;;;;;;;9.67;5.70;;;7.60;99.90;;;7.80;nan;101767.84;5048900;28;20634;-64
2022/11/13 01:44:00;;;;;;;3.80;3.40;;;7.60;99.90;;;7.77;nan;101768.00;5040411;28;20672;-65
2022/11/13 01:46:44;;;;;;;6.27;4.00;;;7.50;99.90;;;7.77;nan;101770.59;5048464;28;20629;-65
2022/11/13 01:49:35;;;;;;;5.43;4.53;;;7.50;99.90;;;7.83;nan;101765.97;5030777;28;20666;-65
2022/11/13 01:52:06;;;;;;;6.23;4.27;;;7.50;99.90;;;7.76;nan;101759.34;5031018;28;20658;-65
2022/11/13 01:55:02;;;;;;;7.33;4.47;;;7.50;99.90;;;7.74;nan;101749.94;5044773;23;20752;-65
2022/11/13 01:57:30;;;;;;;9.10;4.73;;;7.50;99.90;;;7.79;nan;101753.19;5060637;28;21040;-67
2022/11/13 02:00:03;;;;;;;8.77;5.67;;;7.50;99.90;;;7.64;nan;101748.63;5026494;28;20667;-65
2022/11/13 02:02:29;;;;;;;9.50;5.73;;;7.40;99.90;;;7.70;nan;101745.78;5049386;28;20616;-65
2022/11/13 02:04:57;;;;;;;5.20;3.00;;;7.40;99.90;;;7.67;nan;101749.34;5041645;28;20657;-65
2022/11/13 02:07:25;;;;;;;4.20;3.40;;;7.40;99.90;;;7.68;nan;101743.25;5062822;28;20643;-65
2022/11/13 02:09:56;;;;;;;6.03;3.67;;;7.40;99.90;;;7.71;nan;101737.06;5040131;28;20692;-65
2022/11/13 02:12:40;;;;;;;5.90;3.77;;;7.40;99.90;;;7.69;nan;101739.72;5047792;28;20623;-65
2022/11/13 02:15:08;;;;;;;3.37;2.37;;;7.40;99.90;;;7.67;nan;101731.16;5065178;28;20673;-65
2022/11/13 02:17:56;;;;;;;4.53;3.73;;;7.40;99.90;;;7.63;nan;101727.00;5049585;28;20632;-65
2022/11/13 02:20:53;;;;;;;3.30;2.80;;;7.40;99.90;;;7.64;nan;101720.06;5033801;28;20614;-64
2022/11/13 02:23:34;;;;;;;8.17;4.67;;;7.30;99.90;;;7.64;nan;101725.25;5053329;28;21090;-65
2022/11/13 02:26:03;;;;;;;4.17;3.37;;;7.30;99.90;;;7.65;nan;101732.13;5017340;28;20677;-65
2022/11/13 02:28:30;;;;;;;5.10;3.47;;;7.30;99.90;;;7.64;nan;101713.13;5035052;28;20608;-65
2022/11/13 02:31:10;;;;;;;5.90;3.77;;;7.30;99.90;;;7.66;nan;101710.44;5057099;28;20634;-65
2022/11/13 02:33:36;;;;;;;6.53;3.90;;;7.30;99.90;;;7.60;nan;101716.72;5074260;28;20631;-65
2022/11/13 02:36:06;;;;;;;9.33;5.33;;;7.30;99.90;;;7.44;nan;101714.84;5073590;28;20619;-65
2022/11/13 02:38:35;;;;;;;6.70;4.47;;;7.30;99.90;;;7.32;nan;101705.84;5074090;28;20618;-66
2022/11/13 02:41:02;;;;;;;9.43;5.83;;;7.20;99.90;;;7.39;nan;101709.84;5036636;28;20632;-66
2022/11/13 02:43:29;;;;;;;9.37;5.60;;;7.20;99.90;;;7.28;nan;101709.47;5035463;28;20793;-65
2022/11/13 02:45:56;;;;;;;7.20;4.80;;;7.10;99.90;;;7.18;nan;101705.53;5053707;28;21257;-65
2022/11/13 02:48:23;;;;;;;10.53;4.70;;;7.10;99.90;;;7.27;nan;101710.38;5053036;28;20639;-65
2022/11/13 02:50:50;;;;;;;5.37;3.50;;;7.10;99.90;;;7.30;nan;101699.00;5035933;28;20636;-64
2022/11/13 02:53:17;;;;;;;5.00;4.10;;;7.00;99.90;;;7.27;nan;101692.19;5053767;28;21043;-67
2022/11/13 02:55:44;;;;;;;6.77;4.67;;;7.00;99.90;;;7.13;nan;101698.88;5053989;28;20728;-68
2022/11/13 02:58:11;;;;;;;7.47;5.03;;;7.00;99.90;;;7.22;nan;101701.91;5052972;28;20643;-67
2022/11/13 03:00:38;;;;;;;9.50;6.30;;;7.00;99.90;;;7.20;nan;101708.91;5053663;28;20710;-67
2022/11/13 03:03:05;;;;;;;5.60;4.73;;;7.00;99.90;;;7.12;nan;101695.41;5052667;28;20655;-67
2022/11/13 03:05:32;;;;;;;6.07;4.30;;;7.00;99.90;;;7.13;nan;101691.06;5052577;28;21016;-67
2022/11/13 03:07:59;;;;;;;7.10;5.20;;;6.90;99.90;;;7.19;nan;101696.88;5053386;28;21115;-66
2022/11/13 03:10:26;;;;;;;5.10;3.87;;;6.90;99.90;;;7.16;nan;101699.56;5030380;28;20620;-67
2022/11/13 03:12:53;;;;;;;7.33;3.47;;;6.90;99.90;;;7.22;nan;101683.75;5053814;28;20680;-67
2022/11/13 03:15:20;;;;;;;5.43;3.70;;;7.00;99.90;;;7.26;nan;101689.66;5034834;28;20728;-67
2022/11/13 03:17:47;;;;;;;5.03;4.50;;;7.00;99.90;;;7.18;nan;101678.72;5035420;28;21205;-68
2022/11/13 03:20:14;;;;;;;4.67;3.17;;;7.00;99.90;;;7.19;nan;101675.25;5050569;28;21004;-67
2022/11/13 03:22:42;;;;;;;3.83;3.50;;;7.00;99.90;;;7.12;nan;101674.66;5052467;28;20974;-67
2022/11/13 03:25:09;;;;;;;6.57;4.90;;;6.90;99.90;;;7.20;nan;101679.53;5051724;28;20752;-67
2022/11/13 03:27:37;;;;;;;6.77;4.63;;;6.90;99.90;;;7.12;nan;101677.25;5035718;28;20628;-67
2022/11/13 03:30:06;;;;;;;11.50;6.10;;;6.90;99.90;;;6.91;nan;101670.34;5052885;28;20654;-67
2022/11/13 03:32:33;;;;;;;8.00;4.97;;;6.90;99.90;;;7.00;nan;101668.22;5052342;28;20624;-67
2022/11/13 03:35:00;;;;;;;9.63;6.07;;;6.90;99.90;;;6.86;nan;101665.31;5049528;28;21238;-65
2022/11/13 03:37:27;;;;;;;7.10;4.60;;;6.80;99.90;;;6.88;nan;101668.69;5051188;28;20632;-67
2022/11/13 03:39:56;;;;;;;8.10;5.40;;;6.80;99.90;;;6.83;nan;101667.22;5051385;28;20636;-68
2022/11/13 03:42:23;;;;;;;8.73;5.40;;;6.70;99.90;;;6.92;nan;101672.03;5050472;28;20690;-67
2022/11/13 03:44:50;;;;;;;9.77;6.40;;;6.70;99.90;;;6.90;nan;101679.00;5051282;28;20748;-67
2022/11/13 03:47:18;;;;;;;10.40;5.80;;;6.70;99.90;;;6.94;nan;101675.41;5051279;28;20636;-68
2022/11/13 03:49:45;;;;;;;10.50;5.30;;;6.80;99.90;;;6.91;nan;101670.34;5034424;28;20669;-67
2022/11/13 03:52:12;;;;;;;6.27;5.10;;;6.80;99.90;;;6.79;nan;101660.47;5060558;28;20632;-67
2022/11/13 03:54:39;;;;;;;10.27;7.03;;;6.70;99.90;;;6.90;nan;101664.28;5053507;28;20664;-66
2022/11/13 03:57:06;;;;;;;9.70;6.53;;;6.70;99.90;;;6.83;nan;101659.44;5052857;28;20623;-67
2022/11/13 03:59:33;;;;;;;13.55;8.13;;;6.70;99.90;;;6.58;nan;101656.94;5044699;28;21189;-67
2022/11/13 04:02:00;;;;;;;8.70;5.87;;;6.60;99.90;;;6.61;nan;101664.63;5041056;28;20277;-68
2022/11/13 04:04:27;;;;;;;7.00;5.10;;;6.60;99.90;;;6.70;nan;101646.13;5040466;28;20672;-67
2022/11/13 04:06:53;;;;;;;9.03;5.33;;;6.60;99.90;;;6.77;nan;101646.72;5050996;28;20976;-67
2022/11/13 04:09:20;;;;;;;11.60;6.17;;;6.60;99.90;;;6.81;nan;101653.47;5051776;28;20623;-67
2022/11/13 04:11:47;;;;;;;8.67;5.90;;;6.60;99.90;;;6.87;nan;101659.25;5042658;28;20629;-67
2022/11/13 04:14:14;;;;;;;5.50;3.67;;;6.70;99.90;;;6.83;nan;101651.66;5052279;28;20648;-67
2022/11/13 04:16:41;;;;;;;11.13;6.60;;;6.70;99.90;;;6.89;nan;101652.25;5050945;28;20624;-68
2022/11/13 04:19:08;;;;;;;10.63;6.03;;;6.70;99.90;;;6.81;nan;101654.31;5050643;28;20632;-67
2022/11/13 04:21:35;;;;;;;15.73;6.63;;;6.70;99.90;;;6.91;nan;101644.41;5049293;28;20627;-67
2022/11/13 04:24:02;;;;;;;14.63;7.30;;;6.70;99.90;;;7.01;nan;101646.53;5050650;28;20722;-68
2022/11/13 04:26:29;;;;;;;10.17;5.60;;;6.80;99.90;;;6.87;nan;101654.06;5050592;28;20616;-67
2022/11/13 04:28:56;;;;;;;13.80;7.03;;;6.80;99.90;;;6.91;nan;101647.00;5050882;28;20640;-69
2022/11/13 04:31:23;;;;;;;17.23;8.47;;;6.80;99.90;;;6.97;nan;101644.13;5050001;28;20620;-67
2022/11/13 04:33:50;;;;;;;21.80;9.80;;;6.80;99.90;;;6.86;nan;101634.19;5034475;28;20633;-67
2022/11/13 04:36:17;;;;;;;15.60;8.13;;;6.80;99.90;;;6.77;nan;101631.16;5050869;28;20685;-67
2022/11/13 04:38:44;;;;;;;15.53;7.60;;;6.70;99.90;;;6.83;nan;101628.31;5051819;28;20705;-67
2022/11/13 04:43:57;;;;;;;13.97;6.80;;;6.70;99.90;;;6.88;nan;101621.16;5048935;28;20732;-67
2022/11/13 04:46:24;;;;;;;12.80;8.10;;;6.70;99.90;;;6.98;nan;101622.50;5032882;28;20655;-69
2022/11/13 04:48:51;;;;;;;9.97;5.57;;;6.70;99.90;;;6.76;nan;101612.16;5029198;28;21058;-67
2022/11/13 04:51:18;;;;;;;9.40;5.53;;;6.70;99.90;;;6.95;nan;101620.84;5051220;28;20677;-67
2022/11/13 04:53:45;;;;;;;13.70;6.27;;;6.70;99.90;;;6.96;nan;101603.53;5049337;28;20701;-67
2022/11/13 04:56:12;;;;;;;8.70;5.20;;;6.80;99.90;;;7.04;nan;101611.84;5045038;28;20629;-66
2022/11/13 04:58:39;;;;;;;14.50;7.90;;;6.80;99.90;;;6.99;nan;101606.00;5030171;28;21176;-67
2022/11/13 05:01:06;;;;;;;13.00;7.30;;;6.80;99.90;;;7.11;nan;101604.66;5044658;28;20636;-67
2022/11/13 05:03:33;;;;;;;14.57;6.60;;;6.90;99.90;;;6.94;nan;101595.81;5050828;28;20669;-67
2022/11/13 05:06:05;;;;;;;12.87;6.97;;;6.80;99.90;;;6.92;nan;101604.59;5044900;28;20660;-67
2022/11/13 05:08:33;;;;;;;3.77;2.67;;;6.80;99.90;;;6.96;nan;101599.19;5036299;28;21183;-67
2022/11/13 05:11:00;;;;;;;10.20;4.90;;;6.80;99.90;;;6.92;nan;101600.22;5050491;28;20615;-67
2022/11/13 05:13:31;;;;;;;10.87;4.57;;;6.80;99.90;;;6.98;nan;101602.53;5051746;28;20632;-68
2022/11/13 05:16:01;;;;;;;15.70;5.57;;;6.80;99.90;;;7.04;nan;101601.47;5033933;28;21082;-67
2022/11/13 05:18:28;;;;;;;7.30;3.93;;;6.90;99.90;;;7.02;nan;101595.50;5045780;28;20698;-68
2022/11/13 05:20:56;;;;;;;13.07;5.60;;;6.90;99.90;;;6.87;nan;101585.75;5045055;28;20628;-67
2022/11/13 05:23:23;;;;;;;10.97;6.70;;;6.80;99.90;;;6.81;nan;101591.19;5044576;28;20658;-68
2022/11/13 05:25:51;;;;;;;9.50;4.20;;;6.70;99.90;;;6.82;nan;101588.53;5047839;28;20689;-67
2022/11/13 05:28:18;;;;;;;10.00;5.63;;;6.70;99.90;;;6.74;nan;101587.16;5050657;28;20636;-67
2022/11/13 05:30:45;;;;;;;17.60;7.80;;;6.60;99.90;;;6.68;nan;101579.63;5026744;28;20629;-67
2022/11/13 05:33:12;;;;;;;8.90;5.10;;;6.60;99.90;;;6.68;nan;101579.63;5049426;28;20973;-67
2022/11/13 05:35:39;;;;;;;13.07;7.20;;;6.60;99.90;;;6.71;nan;101579.50;5049521;28;20664;-67
2022/11/13 05:38:06;;;;;;;7.63;4.33;;;6.60;99.90;;;6.62;nan;101569.53;5050544;28;20640;-68
2022/11/13 05:40:32;;;;;;;12.13;5.83;;;6.60;99.90;;;6.68;nan;101579.63;5050903;28;20646;-67
2022/11/13 05:42:59;;;;;;;5.53;3.63;;;6.50;99.90;;;6.73;nan;101575.13;5050675;28;20627;-66
2022/11/13 05:45:26;;;;;;;14.33;6.77;;;6.50;99.90;;;6.75;nan;101571.53;5049465;28;20690;-67
2022/11/13 05:47:53;;;;;;;11.97;6.63;;;6.60;99.90;;;6.75;nan;101566.34;5013052;28;20629;-66
2022/11/13 05:50:21;;;;;;;19.53;6.70;;;6.60;99.90;;;6.72;nan;101571.69;5057198;28;20985;-67
2022/11/13 05:52:48;;;;;;;8.90;5.40;;;6.60;99.90;;;6.55;nan;101565.47;5069055;28;20615;-67
2022/11/13 05:55:15;;;;;;;10.40;6.20;;;6.50;99.90;;;6.80;nan;101560.97;5058837;28;20666;-66
2022/11/13 05:57:42;;;;;;;12.57;6.13;;;6.60;99.90;;;6.88;nan;101557.16;5036997;28;20638;-66
2022/11/13 06:00:09;;;;;;;14.63;5.83;;;6.60;99.90;;;6.86;nan;101548.59;5035794;28;21206;-70
2022/11/13 06:02:36;;;;;;;6.20;4.50;;;6.60;99.90;;;6.87;nan;101555.47;5054158;28;20661;-66
2022/11/13 06:05:04;;;;;;;11.87;5.70;;;6.70;99.90;;;6.83;nan;101543.56;5054522;28;20663;-67
2022/11/13 06:07:31;;;;;;;6.67;4.87;;;6.70;99.90;;;6.73;nan;101537.03;5055570;28;20732;-67
2022/11/13 06:09:58;;;;;;;10.73;5.70;;;6.60;99.90;;;6.81;nan;101539.31;5052505;28;20639;-67
2022/11/13 06:12:25;;;;;;;6.47;3.93;;;6.60;99.90;;;6.85;nan;101538.28;5053116;28;20624;-67
2022/11/13 06:14:51;;;;;;;10.77;5.00;;;6.70;99.90;;;6.74;nan;101540.47;5053252;28;21306;-67
2022/11/13 06:17:18;;;;;;;9.07;5.47;;;6.60;99.90;;;6.78;nan;101545.47;5054432;28;20723;-68
2022/11/13 06:19:47;;;;;;;9.53;4.77;;;6.60;99.90;;;6.68;nan;101543.34;5036721;28;20661;-67
2022/11/13 06:22:14;;;;;;;10.13;5.63;;;6.60;99.90;;;6.78;nan;101537.69;5039907;28;20641;-68
2022/11/13 06:24:40;;;;;;;6.60;4.43;;;6.60;99.90;;;6.74;nan;101538.72;5017994;28;20728;-68
2022/11/13 06:27:07;;;;;;;11.13;6.00;;;6.60;99.90;;;6.77;nan;101538.59;5054217;28;20685;-66
2022/11/13 06:29:34;;;;;;;8.13;5.50;;;6.60;99.90;;;6.80;nan;101533.28;5053311;28;21219;-67
2022/11/13 06:32:01;;;;;;;10.80;6.17;;;6.60;99.90;;;6.76;nan;101534.31;5054182;28;20622;-67
2022/11/13 06:34:28;;;;;;;10.23;5.47;;;6.60;99.90;;;6.79;nan;101538.56;5052529;28;20721;-66
2022/11/13 06:36:55;;;;;;;11.07;6.93;;;6.60;99.90;;;6.71;nan;101532.81;5054486;28;20634;-67
2022/11/13 06:39:22;;;;;;;9.27;4.80;;;6.60;99.90;;;6.68;nan;101530.38;5035522;28;20659;-67
2022/11/13 06:41:49;;;;;;;7.17;3.90;;;6.60;99.90;;;6.84;nan;101529.66;5053415;28;21255;-68
2022/11/13 06:44:16;;;;;;;2.07;1.97;;;6.60;99.90;;;6.88;nan;101530.34;5051540;28;21022;-67
2022/11/13 06:46:43;;;;;;;8.60;4.83;;;6.60;99.90;;;6.88;nan;101518.22;5035476;28;21165;-65
2022/11/13 06:49:10;;;;;;;10.90;6.57;;;6.60;99.90;;;6.80;nan;101520.31;5050860;28;20640;-67
2022/11/13 06:51:37;;;;;;;20.17;8.00;;;6.60;99.90;;;6.80;nan;101517.72;5067246;28;20636;-67
2022/11/13 06:54:04;;;;;;;12.60;5.50;;;6.60;99.90;;;6.76;nan;101518.75;5035435;28;20659;-66
2022/11/13 06:56:32;;;;;;;11.63;5.53;;;6.60;99.90;;;6.85;nan;101515.78;5033293;28;20627;-67
2022/11/13 06:58:59;;;;;;;8.57;4.93;;;6.60;99.90;;;6.94;nan;101509.38;5045177;28;20640;-67
2022/11/13 07:01:26;;;;;;;9.50;5.47;;;6.70;99.90;;;6.92;nan;101506.81;5069118;28;20623;-68
2022/11/13 07:03:54;;;;;;;4.97;3.57;;;6.70;99.90;;;6.95;nan;101516.22;5038701;28;20636;-67
2022/11/13 07:06:23;;;;;;;13.30;5.50;;;6.70;99.90;;;6.95;nan;101511.03;5053371;28;20647;-67
2022/11/13 07:08:51;;;;;;;15.70;7.70;;;6.70;99.90;;;6.97;nan;101509.22;5034989;28;20639;-68
2022/11/13 07:11:21;;;;;;;8.13;5.50;;;6.70;99.90;;;7.04;nan;101508.91;5053784;28;20636;-66
2022/11/13 07:13:49;;;;;;;7.40;4.60;;;6.80;99.90;;;6.96;nan;101504.94;5052996;28;20632;-67
2022/11/13 07:16:17;;;;;;;10.77;6.13;;;6.70;99.90;;;6.97;nan;101504.03;5052908;28;20689;-67
2022/11/13 07:18:54;;;;;;;5.93;4.10;;;6.70;99.90;;;6.95;nan;101511.88;5050526;28;20636;-67
2022/11/13 07:21:22;;;;;;;14.50;6.70;;;6.80;99.90;;;7.07;nan;101503.56;5015803;28;20643;-67
2022/11/13 07:23:50;;;;;;;9.10;5.10;;;6.80;99.90;;;6.98;nan;101503.94;5064227;28;20688;-67
2022/11/13 07:26:17;;;;;;;7.67;5.40;;;6.80;99.90;;;7.17;nan;101503.16;5054494;28;21092;-67
2022/11/13 07:28:46;;;;;;;5.47;4.47;;;6.90;99.90;;;7.09;nan;101503.50;5045679;28;21016;-66
2022/11/13 07:31:15;;;;;;;5.70;4.53;;;6.90;99.90;;;7.13;nan;101505.06;5051803;28;20693;-67
2022/11/13 07:33:42;;;;;;;5.17;3.93;;;6.90;99.90;;;7.09;nan;101503.50;5052758;28;20697;-67
2022/11/13 07:36:10;;;;;;;6.30;4.50;;;6.90;99.90;;;7.05;nan;101501.94;5034236;28;21272;-67
2022/11/13 07:38:37;;;;;;;6.90;5.00;;;6.90;99.90;;;7.03;nan;101498.56;5051400;28;21015;-67
2022/11/13 07:41:04;;;;;;;7.67;5.07;;;6.80;99.90;;;6.88;nan;101501.81;5051093;28;20720;-67
2022/11/13 07:43:32;;;;;;;3.50;2.90;;;6.80;99.90;;;7.05;nan;101501.94;5034610;28;20697;-67
2022/11/13 07:45:59;;;;;;;6.73;4.80;;;6.80;99.90;;;7.15;nan;101497.19;5054580;28;20671;-67
2022/11/13 07:48:27;;;;;;;4.67;3.70;;;6.80;99.90;;;7.17;nan;101505.75;5037519;28;20643;-68
2022/11/13 07:50:59;;;;;;;5.57;3.93;;;6.90;99.90;;;7.17;nan;101514.41;5026068;28;21200;-66
2022/11/13 07:53:26;;;;;;;12.13;6.33;;;6.90;99.90;;;7.26;nan;101515.75;5031804;28;20624;-67
2022/11/13 07:55:53;;;;;;;9.03;4.70;;;6.90;99.90;;;7.15;nan;101507.59;5027903;23;20736;-64
2022/11/13 07:58:20;;;;;;;7.30;4.40;;;6.90;99.90;;;7.22;nan;101509.81;5031220;28;20630;-63
2022/11/13 08:00:47;;;;;;;10.87;5.97;;;6.90;99.90;;;7.29;nan;101506.06;5030625;28;21285;-64
2022/11/13 08:03:16;;;;;;;11.30;6.20;;;7.00;99.90;;;7.24;nan;101502.81;5044888;28;20633;-64
2022/11/13 08:05:43;;;;;;;13.43;6.23;;;7.00;99.90;;;7.24;nan;101502.81;4999747;28;20670;-64
2022/11/13 08:08:14;;;;;;;6.57;4.40;;;7.00;99.90;;;7.29;nan;101503.47;5009799;28;20707;-63
2022/11/13 08:10:41;;;;;;;11.00;5.27;;;7.00;99.90;;;7.35;nan;101499.72;5009652;28;21201;-63
2022/11/13 08:13:10;;;;;;;6.87;4.47;;;7.00;99.90;;;7.48;nan;101496.53;5011321;28;21085;-63
2022/11/13 08:15:37;;;;;;;3.93;3.17;;;7.10;99.90;;;7.55;nan;101494.50;5011167;28;21105;-63
2022/11/13 08:18:04;;;;;;;5.17;3.53;;;7.10;99.90;;;7.48;nan;101495.69;5010667;28;21277;-63
2022/11/13 08:20:32;;;;;;;8.77;5.83;;;7.10;99.90;;;7.53;nan;101486.78;5005234;28;21209;-63
2022/11/13 08:23:01;;;;;;;9.97;6.43;;;7.20;99.90;;;7.51;nan;101495.56;5021680;28;20637;-63
2022/11/13 08:25:31;;;;;;;12.87;7.57;;;7.20;99.90;;;7.58;nan;101487.41;5011172;28;20703;-63
2022/11/13 08:27:58;;;;;;;10.37;5.80;;;7.20;99.90;;;7.65;nan;101496.59;5011197;28;20646;-63
2022/11/13 08:30:27;;;;;;;7.73;5.27;;;7.30;99.90;;;7.69;nan;101500.72;5010445;28;21251;-64
2022/11/13 08:32:54;;;;;;;6.10;4.97;;;7.30;99.90;;;7.66;nan;101498.31;5011113;28;20704;-63
2022/11/13 08:35:21;;;;;;;13.23;7.17;;;7.30;99.90;;;7.65;nan;101494.00;5012576;28;20692;-62
2022/11/13 08:38:05;;;;;;;8.60;5.87;;;7.30;99.90;;;7.67;nan;101479.19;4986576;28;21193;-63
2022/11/13 08:40:32;;;;;;;12.17;6.80;;;7.40;99.90;;;7.68;nan;101493.88;5009828;28;20647;-63
2022/11/13 08:43:01;;;;;;;9.27;5.57;;;7.40;99.90;;;7.41;nan;101482.13;5012143;28;21235;-64
2022/11/13 08:45:29;;;;;;;7.87;4.67;;;7.30;99.90;;;7.70;nan;101468.66;5011232;28;20668;-62
2022/11/13 08:48:01;;;;;;;6.37;4.53;;;7.40;99.90;;;7.93;nan;101471.91;5012686;28;21251;-64
2022/11/13 08:50:29;;;;;;;10.33;6.43;;;7.40;99.90;;;8.03;nan;101470.59;5020301;28;20646;-64
2022/11/13 08:52:58;;;;;;;11.27;5.93;;;7.50;99.90;;;8.01;nan;101462.84;5016400;28;21038;-63
2022/11/13 08:55:26;;;;;;;12.43;6.80;;;7.60;99.90;;;7.89;nan;101462.59;5010455;28;20673;-63
2022/11/13 08:57:57;;;;;;;10.90;5.83;;;7.50;99.90;;;7.84;nan;101465.41;5010726;28;20637;-63
2022/11/13 09:00:25;;;;;;;3.13;2.60;;;7.50;99.90;;;8.04;nan;101457.50;5011045;28;20640;-64
2022/11/13 09:02:57;;;;;;;11.17;5.30;;;7.60;99.90;;;7.88;nan;101453.13;4992107;28;20695;-65
2022/11/13 09:05:25;;;;;;;9.57;4.30;;;7.50;99.90;;;8.08;nan;101456.44;5015085;28;21367;-65
2022/11/13 09:07:59;;;;;;;11.50;7.83;;;7.60;99.90;;;7.97;nan;101458.69;5001107;28;21196;-64
2022/11/13 09:10:27;;;;;;;6.30;4.40;;;7.60;99.90;;;8.06;nan;101447.88;5009757;28;20714;-64
2022/11/13 09:13:03;;;;;;;6.40;4.87;;;7.60;99.90;;;8.15;nan;101444.84;5011863;28;20642;-65
2022/11/13 09:15:31;;;;;;;12.23;7.30;;;7.60;99.90;;;8.26;nan;101452.13;5010685;28;20657;-65
2022/11/13 09:18:00;;;;;;;10.53;5.87;;;7.70;99.90;;;8.22;nan;101450.56;5011696;28;20699;-63
2022/11/13 09:20:29;;;;;;;9.47;5.97;;;7.80;99.90;;;8.37;nan;101448.06;5010278;28;20639;-64
2022/11/13 09:23:03;;;;;;;7.87;5.67;;;7.80;99.90;;;8.52;nan;101452.50;5010907;28;20674;-65
2022/11/13 09:25:33;;;;;;;12.90;7.20;;;7.90;99.90;;;8.52;nan;101447.31;5009368;28;20673;-65
2022/11/13 09:28:04;;;;;;;7.70;5.70;;;8.00;99.90;;;8.63;nan;101448.50;4993847;28;20634;-65
2022/11/13 09:30:32;;;;;;;14.37;7.47;;;8.00;99.90;;;8.64;nan;101440.66;5009438;28;21065;-62
2022/11/13 09:33:00;;;;;;;13.23;7.67;;;8.10;99.90;;;8.41;nan;101438.38;5011504;28;20625;-65
2022/11/13 09:35:35;;;;;;;9.93;5.63;;;8.10;99.90;;;8.48;nan;101437.13;4992497;28;20736;-65
2022/11/13 09:38:08;;;;;;;10.77;6.70;;;8.00;99.90;;;8.54;nan;101431.59;5010727;28;20627;-64
2022/11/13 09:40:57;;;;;;;9.93;6.40;;;8.00;99.90;;;8.48;nan;101430.19;5005538;28;21201;-65
2022/11/13 09:43:27;;;;;;;12.07;6.70;;;8.10;99.90;;;8.58;nan;101435.75;5009955;28;20634;-64
2022/11/13 09:46:01;;;;;;;9.43;6.10;;;8.10;99.90;;;8.72;nan;101422.03;5009052;28;21097;-63
2022/11/13 09:48:37;;;;;;;11.23;6.30;;;8.10;99.90;;;8.80;nan;101415.50;5009090;28;20638;-65
2022/11/13 09:51:31;;;;;;;12.77;7.60;;;8.20;99.90;;;8.98;nan;101411.97;5010562;28;20710;-65
2022/11/13 09:54:05;;;;;;;15.83;9.07;;;8.30;99.90;;;8.89;nan;101394.22;4993140;28;20684;-64
2022/11/13 09:57:26;;;;;;;13.87;7.37;;;8.40;99.90;;;8.98;nan;101404.16;4992595;28;20654;-65
2022/11/13 10:00:18;;;;;;;12.00;7.17;;;8.40;99.90;;;8.95;nan;101396.50;4980528;28;20649;-65
2022/11/13 10:03:18;;;;;;;19.50;8.80;;;8.40;99.90;;;8.95;nan;101399.09;5010191;28;20701;-65
2022/11/13 10:06:37;;;;;;;15.07;9.00;;;8.40;99.90;;;8.87;nan;101390.84;4994163;28;20693;-64
2022/11/13 10:09:40;;;;;;;14.80;9.20;;;8.50;99.90;;;8.86;nan;101377.94;4992852;28;20692;-65
2022/11/13 10:12:08;;;;;;;14.03;8.20;;;8.40;99.90;;;8.81;nan;101375.56;4997093;28;21184;-65
2022/11/13 10:14:50;;;;;;;15.83;9.10;;;8.40;99.90;;;8.97;nan;101359.97;5022734;28;20718;-64
2022/11/13 10:17:35;;;;;;;15.93;9.10;;;8.40;99.90;;;8.97;nan;101353.00;4996677;28;20695;-64
2022/11/13 10:20:30;;;;;;;15.20;8.17;;;8.50;99.90;;;9.03;nan;101352.66;5007384;28;20630;-64
2022/11/13 10:23:20;;;;;;;6.13;4.70;;;8.50;99.90;;;9.39;nan;101345.44;5010302;28;20641;-64
2022/11/13 10:25:50;;;;;;;15.77;8.87;;;8.70;99.90;;;9.99;nan;101342.88;4991223;28;20666;-61
2022/11/13 10:28:22;;;;;;;14.47;8.30;;;9.00;99.90;;;10.25;nan;101323.13;5011073;28;20634;-63
2022/11/13 10:31:10;;;;;;;11.63;7.13;;;9.30;99.90;;;10.48;nan;101315.59;4994667;28;20652;-64
2022/11/13 10:33:38;;;;;;;13.53;8.47;;;9.60;99.90;;;10.75;nan;101315.69;4992336;28;20638;-63
2022/11/13 10:36:48;;;;;;;9.47;5.37;;;9.80;99.90;;;11.05;nan;101320.78;5008830;28;21317;-64
2022/11/13 10:39:15;;;;;;;7.63;4.93;;;10.00;99.90;;;11.16;nan;101313.09;4986325;28;20642;-64
2022/11/13 10:41:52;;;;;;;8.30;6.27;;;10.10;99.90;;;11.44;nan;101323.44;5011402;28;20645;-64
2022/11/13 10:44:32;;;;;;;7.40;4.50;;;10.30;99.90;;;11.35;nan;101321.44;5014041;28;20660;-65
2022/11/13 10:47:32;;;;;;;6.63;4.40;;;10.50;99.90;;;11.25;nan;101315.09;5013785;28;21207;-64
2022/11/13 10:50:26;;;;;;;8.90;6.00;;;10.50;99.90;;;11.14;nan;101313.19;4991111;28;20605;-64
2022/11/13 10:52:55;;;;;;;7.60;5.73;;;10.50;99.90;;;10.28;nan;101308.16;5020707;28;21245;-64
2022/11/13 10:55:37;;;;;;;11.33;5.27;;;10.10;99.90;;;10.51;nan;101310.19;5011787;28;20668;-64